PWSweather.com
Personal Weather Stations
Station Observations

Acton, CA 93510

Lat: 34.47703, Lon: -118.17483

Elevation: 2900

Station Type: Davis Vantage Pro 2

http://www.actonastro.com/weather/current.php

High Low Average
Temperature 75.6°F24.2°F 49.8°F9.9°F 63.4°F17.4°F
Dew Point 27.5°F-2.5°F 18.2°F-7.7°F 20.8°F-6.2°F
Winds 17.0 mph ENE27.4 mph ENE Calm Calm 4.7 mph 7.6 mph
Wind Gusts 23.0 mph37.0 mph -- 9.6 mph15.4 mph
Humidity 31% 12% 20%
Pressure 29.79 in1008.80 in 29.65 in1004.10 in -
Precipitation 0.00 in0.00 in - -
Hour Temp Dew Point Humidity Winds Wind Gusts Pressure Precip Precip Rate Daily Precip Total
12:01 AM 57.6°F14.2°C 21.1°F-6.1°C 24% 3.0 mph ENE4.8 kmh ENE 4.0 mph6.4 kmh 29.75 in1007.5 mb 0.00 in0.0 mm 0.00 in0.0 mm 0.00 in0.0 mm
12:06 AM 57.5°F14.2°C 21.0°F-6.1°C 24% 3.0 mph ENE4.8 kmh ENE 4.0 mph6.4 kmh 29.75 in1007.5 mb 0.00 in0.0 mm 0.00 in0.0 mm 0.00 in0.0 mm
12:11 AM 57.5°F14.2°C 22.0°F-5.6°C 25% 2.0 mph E3.2 kmh E 4.0 mph6.4 kmh 29.75 in1007.5 mb 0.00 in0.0 mm 0.00 in0.0 mm 0.00 in0.0 mm
12:16 AM 57.5°F14.2°C 22.0°F-5.6°C 25% 2.0 mph ENE3.2 kmh ENE 4.0 mph6.4 kmh 29.75 in1007.5 mb 0.00 in0.0 mm 0.00 in0.0 mm 0.00 in0.0 mm
12:21 AM 57.5°F14.2°C 22.0°F-5.6°C 25% Calm Calm 4.0 mph6.4 kmh 29.75 in1007.5 mb 0.00 in0.0 mm 0.00 in0.0 mm 0.00 in0.0 mm
12:26 AM 57.2°F14.0°C 21.7°F-5.7°C 25% 3.0 mph ENE4.8 kmh ENE 4.0 mph6.4 kmh 29.75 in1007.5 mb 0.00 in0.0 mm 0.00 in0.0 mm 0.00 in0.0 mm
12:31 AM 57.2°F14.0°C 21.7°F-5.7°C 25% 3.0 mph NE4.8 kmh NE 5.0 mph8.0 kmh 29.75 in1007.5 mb 0.00 in0.0 mm 0.00 in0.0 mm 0.00 in0.0 mm
12:36 AM 57.5°F14.2°C 22.0°F-5.6°C 25% 3.0 mph NE4.8 kmh NE 5.0 mph8.0 kmh 29.75 in1007.5 mb 0.00 in0.0 mm 0.00 in0.0 mm 0.00 in0.0 mm
12:41 AM 58.1°F14.5°C 22.5°F-5.3°C 25% 2.0 mph NE3.2 kmh NE 6.0 mph9.7 kmh 29.75 in1007.5 mb 0.00 in0.0 mm 0.00 in0.0 mm 0.00 in0.0 mm
12:46 AM 58.3°F14.6°C 22.6°F-5.2°C 25% 3.0 mph E4.8 kmh E 6.0 mph9.7 kmh 29.74 in1007.1 mb 0.00 in0.0 mm 0.00 in0.0 mm 0.00 in0.0 mm
12:51 AM 58.3°F14.6°C 22.6°F-5.2°C 25% 1.0 mph E1.6 kmh E 6.0 mph9.7 kmh 29.74 in1007.1 mb 0.00 in0.0 mm 0.00 in0.0 mm 0.00 in0.0 mm
12:56 AM 58.0°F14.4°C 22.4°F-5.3°C 25% Calm Calm 6.0 mph9.7 kmh 29.74 in1007.1 mb 0.00 in0.0 mm 0.00 in0.0 mm 0.00 in0.0 mm
01:01 AM 57.5°F14.2°C 22.9°F-5.1°C 26% 1.0 mph E1.6 kmh E 3.0 mph4.8 kmh 29.74 in1007.1 mb 0.00 in0.0 mm 0.00 in0.0 mm 0.00 in0.0 mm
01:06 AM 57.0°F13.9°C 22.5°F-5.3°C 26% Calm Calm 3.0 mph4.8 kmh 29.74 in1007.1 mb 0.00 in0.0 mm 0.00 in0.0 mm 0.00 in0.0 mm
01:11 AM 56.5°F13.6°C 22.0°F-5.6°C 26% 2.0 mph E3.2 kmh E 3.0 mph4.8 kmh 29.74 in1007.1 mb 0.00 in0.0 mm 0.00 in0.0 mm 0.00 in0.0 mm
01:16 AM 56.2°F13.4°C 21.8°F-5.7°C 26% 2.0 mph NE3.2 kmh NE 4.0 mph6.4 kmh 29.74 in1007.1 mb 0.00 in0.0 mm 0.00 in0.0 mm 0.00 in0.0 mm
01:21 AM 56.0°F13.3°C 21.6°F-5.8°C 26% 3.0 mph NE4.8 kmh NE 4.0 mph6.4 kmh 29.74 in1007.1 mb 0.00 in0.0 mm 0.00 in0.0 mm 0.00 in0.0 mm
01:26 AM 56.0°F13.3°C 21.6°F-5.8°C 26% 1.0 mph ENE1.6 kmh ENE 4.0 mph6.4 kmh 29.74 in1007.1 mb 0.00 in0.0 mm 0.00 in0.0 mm 0.00 in0.0 mm
01:31 AM 56.0°F13.3°C 22.5°F-5.3°C 27% Calm Calm 4.0 mph6.4 kmh 29.74 in1007.1 mb 0.00 in0.0 mm 0.00 in0.0 mm 0.00 in0.0 mm
01:36 AM 55.9°F13.3°C 22.4°F-5.3°C 27% 3.0 mph E4.8 kmh E 3.0 mph4.8 kmh 29.74 in1007.1 mb 0.00 in0.0 mm 0.00 in0.0 mm 0.00 in0.0 mm
01:41 AM 55.7°F13.2°C 22.2°F-5.4°C 27% 1.0 mph E1.6 kmh E 3.0 mph4.8 kmh 29.74 in1007.1 mb 0.00 in0.0 mm 0.00 in0.0 mm 0.00 in0.0 mm
01:46 AM 55.6°F13.1°C 22.2°F-5.4°C 27% Calm Calm 3.0 mph4.8 kmh 29.74 in1007.1 mb 0.00 in0.0 mm 0.00 in0.0 mm 0.00 in0.0 mm
01:51 AM 55.3°F12.9°C 21.9°F-5.6°C 27% 1.0 mph E1.6 kmh E 1.0 mph1.6 kmh 29.74 in1007.1 mb 0.00 in0.0 mm 0.00 in0.0 mm 0.00 in0.0 mm
01:56 AM 55.1°F12.8°C 22.6°F-5.2°C 28% 1.0 mph E1.6 kmh E 1.0 mph1.6 kmh 29.74 in1007.1 mb 0.00 in0.0 mm 0.00 in0.0 mm 0.00 in0.0 mm
02:01 AM 54.8°F12.7°C 22.3°F-5.4°C 28% Calm Calm 1.0 mph1.6 kmh 29.74 in1007.1 mb 0.00 in0.0 mm 0.00 in0.0 mm 0.00 in0.0 mm
02:06 AM 54.5°F12.5°C 22.1°F-5.5°C 28% Calm Calm 2.0 mph3.2 kmh 29.74 in1007.1 mb 0.00 in0.0 mm 0.00 in0.0 mm 0.00 in0.0 mm
02:11 AM 54.4°F12.4°C 22.0°F-5.6°C 28% 1.0 mph E1.6 kmh E 3.0 mph4.8 kmh 29.74 in1007.1 mb 0.00 in0.0 mm 0.00 in0.0 mm 0.00 in0.0 mm
02:16 AM 54.2°F12.3°C 21.8°F-5.7°C 28% 1.0 mph E1.6 kmh E 3.0 mph4.8 kmh 29.73 in1006.8 mb 0.00 in0.0 mm 0.00 in0.0 mm 0.00 in0.0 mm
02:21 AM 54.2°F12.3°C 21.8°F-5.7°C 28% 1.0 mph E1.6 kmh E 3.0 mph4.8 kmh 29.73 in1006.8 mb 0.00 in0.0 mm 0.00 in0.0 mm 0.00 in0.0 mm
02:26 AM 54.4°F12.4°C 22.0°F-5.6°C 28% 1.0 mph E1.6 kmh E 2.0 mph3.2 kmh 29.73 in1006.8 mb 0.00 in0.0 mm 0.00 in0.0 mm 0.00 in0.0 mm
02:31 AM 54.5°F12.5°C 22.1°F-5.5°C 28% Calm Calm 3.0 mph4.8 kmh 29.73 in1006.8 mb 0.00 in0.0 mm 0.00 in0.0 mm 0.00 in0.0 mm
02:36 AM 54.5°F12.5°C 22.1°F-5.5°C 28% Calm Calm 2.0 mph3.2 kmh 29.73 in1006.8 mb 0.00 in0.0 mm 0.00 in0.0 mm 0.00 in0.0 mm
02:41 AM 54.4°F12.4°C 22.0°F-5.6°C 28% Calm Calm -- 29.73 in1006.8 mb 0.00 in0.0 mm 0.00 in0.0 mm 0.00 in0.0 mm
02:46 AM 54.4°F12.4°C 22.0°F-5.6°C 28% 1.0 mph E1.6 kmh E 3.0 mph4.8 kmh 29.73 in1006.8 mb 0.00 in0.0 mm 0.00 in0.0 mm 0.00 in0.0 mm
02:51 AM 55.1°F12.8°C 22.6°F-5.2°C 28% 2.0 mph ENE3.2 kmh ENE 6.0 mph9.7 kmh 29.73 in1006.8 mb 0.00 in0.0 mm 0.00 in0.0 mm 0.00 in0.0 mm
02:56 AM 55.9°F13.3°C 22.4°F-5.3°C 27% 3.0 mph ENE4.8 kmh ENE 6.0 mph9.7 kmh 29.73 in1006.8 mb 0.00 in0.0 mm 0.00 in0.0 mm 0.00 in0.0 mm
03:01 AM 56.3°F13.5°C 22.8°F-5.1°C 27% 3.0 mph ENE4.8 kmh ENE 6.0 mph9.7 kmh 29.72 in1006.4 mb 0.00 in0.0 mm 0.00 in0.0 mm 0.00 in0.0 mm
03:06 AM 56.5°F13.6°C 22.9°F-5.1°C 27% 1.0 mph ENE1.6 kmh ENE 6.0 mph9.7 kmh 29.72 in1006.4 mb 0.00 in0.0 mm 0.00 in0.0 mm 0.00 in0.0 mm
03:11 AM 56.2°F13.4°C 22.7°F-5.2°C 27% 2.0 mph ENE3.2 kmh ENE 4.0 mph6.4 kmh 29.72 in1006.4 mb 0.00 in0.0 mm 0.00 in0.0 mm 0.00 in0.0 mm
03:16 AM 55.9°F13.3°C 23.3°F-4.8°C 28% 3.0 mph ENE4.8 kmh ENE 4.0 mph6.4 kmh 29.72 in1006.4 mb 0.00 in0.0 mm 0.00 in0.0 mm 0.00 in0.0 mm
03:21 AM 55.4°F13.0°C 22.0°F-5.6°C 27% 1.0 mph ENE1.6 kmh ENE 3.0 mph4.8 kmh 29.72 in1006.4 mb 0.00 in0.0 mm 0.00 in0.0 mm 0.00 in0.0 mm
03:26 AM 55.0°F12.8°C 22.5°F-5.3°C 28% Calm Calm 1.0 mph1.6 kmh 29.72 in1006.4 mb 0.00 in0.0 mm 0.00 in0.0 mm 0.00 in0.0 mm
03:31 AM 54.4°F12.4°C 22.0°F-5.6°C 28% 1.0 mph ENE1.6 kmh ENE 3.0 mph4.8 kmh 29.73 in1006.8 mb 0.00 in0.0 mm 0.00 in0.0 mm 0.00 in0.0 mm
03:36 AM 53.9°F12.2°C 22.4°F-5.3°C 29% 1.0 mph ENE1.6 kmh ENE 3.0 mph4.8 kmh 29.73 in1006.8 mb 0.00 in0.0 mm 0.00 in0.0 mm 0.00 in0.0 mm
03:41 AM 53.6°F12.0°C 22.9°F-5.1°C 30% 1.0 mph ENE1.6 kmh ENE 2.0 mph3.2 kmh 29.73 in1006.8 mb 0.00 in0.0 mm 0.00 in0.0 mm 0.00 in0.0 mm
03:46 AM 53.2°F11.8°C 22.6°F-5.2°C 30% 2.0 mph ESE3.2 kmh ESE 3.0 mph4.8 kmh 29.73 in1006.8 mb 0.00 in0.0 mm 0.00 in0.0 mm 0.00 in0.0 mm
03:51 AM 53.1°F11.7°C 22.5°F-5.3°C 30% Calm Calm 4.0 mph6.4 kmh 29.73 in1006.8 mb 0.00 in0.0 mm 0.00 in0.0 mm 0.00 in0.0 mm
03:56 AM 52.8°F11.6°C 21.4°F-5.9°C 29% 1.0 mph ESE1.6 kmh ESE 4.0 mph6.4 kmh 29.73 in1006.8 mb 0.00 in0.0 mm 0.00 in0.0 mm 0.00 in0.0 mm
04:01 AM 52.6°F11.4°C 22.1°F-5.5°C 30% 1.0 mph ESE1.6 kmh ESE 4.0 mph6.4 kmh 29.73 in1006.8 mb 0.00 in0.0 mm 0.00 in0.0 mm 0.00 in0.0 mm
04:06 AM 52.2°F11.2°C 21.7°F-5.7°C 30% 1.0 mph ESE1.6 kmh ESE 2.0 mph3.2 kmh 29.73 in1006.8 mb 0.00 in0.0 mm 0.00 in0.0 mm 0.00 in0.0 mm
04:11 AM 51.9°F11.1°C 21.5°F-5.8°C 30% Calm Calm -- 29.73 in1006.8 mb 0.00 in0.0 mm 0.00 in0.0 mm 0.00 in0.0 mm
04:16 AM 51.7°F10.9°C 21.3°F-5.9°C 30% 3.0 mph ESE4.8 kmh ESE 3.0 mph4.8 kmh 29.73 in1006.8 mb 0.00 in0.0 mm 0.00 in0.0 mm 0.00 in0.0 mm
04:21 AM 51.6°F10.9°C 21.2°F-6.0°C 30% 1.0 mph ESE1.6 kmh ESE 5.0 mph8.0 kmh 29.73 in1006.8 mb 0.00 in0.0 mm 0.00 in0.0 mm 0.00 in0.0 mm
04:26 AM 51.6°F10.9°C 21.2°F-6.0°C 30% Calm Calm 5.0 mph8.0 kmh 29.73 in1006.8 mb 0.00 in0.0 mm 0.00 in0.0 mm 0.00 in0.0 mm
04:31 AM 51.4°F10.8°C 21.8°F-5.7°C 31% Calm Calm 5.0 mph8.0 kmh 29.73 in1006.8 mb 0.00 in0.0 mm 0.00 in0.0 mm 0.00 in0.0 mm
04:36 AM 51.3°F10.7°C 21.7°F-5.7°C 31% Calm Calm 5.0 mph8.0 kmh 29.73 in1006.8 mb 0.00 in0.0 mm 0.00 in0.0 mm 0.00 in0.0 mm
04:41 AM 51.0°F10.6°C 21.4°F-5.9°C 31% 1.0 mph ESE1.6 kmh ESE 2.0 mph3.2 kmh 29.73 in1006.8 mb 0.00 in0.0 mm 0.00 in0.0 mm 0.00 in0.0 mm
04:46 AM 50.8°F10.4°C 20.5°F-6.4°C 30% 2.0 mph E3.2 kmh E 4.0 mph6.4 kmh 29.73 in1006.8 mb 0.00 in0.0 mm 0.00 in0.0 mm 0.00 in0.0 mm
04:51 AM 51.0°F10.6°C 20.7°F-6.3°C 30% 1.0 mph E1.6 kmh E 4.0 mph6.4 kmh 29.73 in1006.8 mb 0.00 in0.0 mm 0.00 in0.0 mm 0.00 in0.0 mm
04:56 AM 50.8°F10.4°C 20.5°F-6.4°C 30% Calm Calm 2.0 mph3.2 kmh 29.73 in1006.8 mb 0.00 in0.0 mm 0.00 in0.0 mm 0.00 in0.0 mm
05:01 AM 50.7°F10.4°C 20.4°F-6.4°C 30% 2.0 mph E3.2 kmh E 2.0 mph3.2 kmh 29.73 in1006.8 mb 0.00 in0.0 mm 0.00 in0.0 mm 0.00 in0.0 mm
05:06 AM 50.7°F10.4°C 19.6°F-6.9°C 29% Calm Calm 3.0 mph4.8 kmh 29.73 in1006.8 mb 0.00 in0.0 mm 0.00 in0.0 mm 0.00 in0.0 mm
05:11 AM 50.8°F10.4°C 19.7°F-6.8°C 29% 2.0 mph SE3.2 kmh SE 3.0 mph4.8 kmh 29.73 in1006.8 mb 0.00 in0.0 mm 0.00 in0.0 mm 0.00 in0.0 mm
05:16 AM 51.0°F10.6°C 19.9°F-6.7°C 29% Calm Calm 3.0 mph4.8 kmh 29.74 in1007.1 mb 0.00 in0.0 mm 0.00 in0.0 mm 0.00 in0.0 mm
05:21 AM 51.0°F10.6°C 19.1°F-7.2°C 28% 1.0 mph SE1.6 kmh SE 3.0 mph4.8 kmh 29.74 in1007.1 mb 0.00 in0.0 mm 0.00 in0.0 mm 0.00 in0.0 mm
05:26 AM 51.0°F10.6°C 19.1°F-7.2°C 28% Calm Calm 1.0 mph1.6 kmh 29.74 in1007.1 mb 0.00 in0.0 mm 0.00 in0.0 mm 0.00 in0.0 mm
05:31 AM 51.0°F10.6°C 19.1°F-7.2°C 28% Calm Calm 2.0 mph3.2 kmh 29.74 in1007.1 mb 0.00 in0.0 mm 0.00 in0.0 mm 0.00 in0.0 mm
05:36 AM 50.7°F10.4°C 19.6°F-6.9°C 29% 1.0 mph SE1.6 kmh SE 1.0 mph1.6 kmh 29.74 in1007.1 mb 0.00 in0.0 mm 0.00 in0.0 mm 0.00 in0.0 mm
05:41 AM 50.4°F10.2°C 19.4°F-7.0°C 29% Calm Calm 1.0 mph1.6 kmh 29.74 in1007.1 mb 0.00 in0.0 mm 0.00 in0.0 mm 0.00 in0.0 mm
05:46 AM 50.2°F10.1°C 20.0°F-6.7°C 30% 1.0 mph SE1.6 kmh SE 2.0 mph3.2 kmh 29.74 in1007.1 mb 0.00 in0.0 mm 0.00 in0.0 mm 0.00 in0.0 mm
05:51 AM 49.9°F9.9°C 19.7°F-6.8°C 30% 1.0 mph SE1.6 kmh SE 2.0 mph3.2 kmh 29.74 in1007.1 mb 0.00 in0.0 mm 0.00 in0.0 mm 0.00 in0.0 mm
05:56 AM 49.8°F9.9°C 18.8°F-7.3°C 29% 1.0 mph SE1.6 kmh SE 2.0 mph3.2 kmh 29.74 in1007.1 mb 0.00 in0.0 mm 0.00 in0.0 mm 0.00 in0.0 mm
06:01 AM 49.9°F9.9°C 18.9°F-7.3°C 29% 1.0 mph SE1.6 kmh SE 3.0 mph4.8 kmh 29.74 in1007.1 mb 0.00 in0.0 mm 0.00 in0.0 mm 0.00 in0.0 mm
06:06 AM 50.2°F10.1°C 19.2°F-7.1°C 29% 2.0 mph SE3.2 kmh SE 3.0 mph4.8 kmh 29.74 in1007.1 mb 0.00 in0.0 mm 0.00 in0.0 mm 0.00 in0.0 mm
06:11 AM 50.7°F10.4°C 18.8°F-7.3°C 28% Calm Calm -- 29.74 in1007.1 mb 0.00 in0.0 mm 0.00 in0.0 mm 0.00 in0.0 mm
06:16 AM 50.7°F10.4°C 18.8°F-7.3°C 28% 1.0 mph SE1.6 kmh SE 2.0 mph3.2 kmh 29.75 in1007.5 mb 0.00 in0.0 mm 0.00 in0.0 mm 0.00 in0.0 mm
06:21 AM 50.7°F10.4°C 18.8°F-7.3°C 28% Calm Calm 2.0 mph3.2 kmh 29.75 in1007.5 mb 0.00 in0.0 mm 0.00 in0.0 mm 0.00 in0.0 mm
06:26 AM 50.5°F10.3°C 19.4°F-7.0°C 29% 1.0 mph SE1.6 kmh SE 1.0 mph1.6 kmh 29.75 in1007.5 mb 0.00 in0.0 mm 0.00 in0.0 mm 0.00 in0.0 mm
06:31 AM 50.4°F10.2°C 19.4°F-7.0°C 29% Calm Calm 3.0 mph4.8 kmh 29.76 in1007.8 mb 0.00 in0.0 mm 0.00 in0.0 mm 0.00 in0.0 mm
06:36 AM 50.2°F10.1°C 19.2°F-7.1°C 29% 1.0 mph SE1.6 kmh SE 3.0 mph4.8 kmh 29.76 in1007.8 mb 0.00 in0.0 mm 0.00 in0.0 mm 0.00 in0.0 mm
06:41 AM 50.4°F10.2°C 19.4°F-7.0°C 29% 2.0 mph SE3.2 kmh SE 3.0 mph4.8 kmh 29.76 in1007.8 mb 0.00 in0.0 mm 0.00 in0.0 mm 0.00 in0.0 mm
06:46 AM 50.7°F10.4°C 19.6°F-6.9°C 29% 1.0 mph S1.6 kmh S 3.0 mph4.8 kmh 29.76 in1007.8 mb 0.00 in0.0 mm 0.00 in0.0 mm 0.00 in0.0 mm
06:51 AM 50.7°F10.4°C 18.8°F-7.3°C 28% Calm Calm 1.0 mph1.6 kmh 29.76 in1007.8 mb 0.00 in0.0 mm 0.00 in0.0 mm 0.00 in0.0 mm
06:56 AM 50.5°F10.3°C 18.6°F-7.4°C 28% 1.0 mph S1.6 kmh S 2.0 mph3.2 kmh 29.76 in1007.8 mb 0.00 in0.0 mm 0.00 in0.0 mm 0.00 in0.0 mm
07:01 AM 50.5°F10.3°C 20.2°F-6.6°C 30% Calm Calm 2.0 mph3.2 kmh 29.77 in1008.1 mb 0.00 in0.0 mm 0.00 in0.0 mm 0.00 in0.0 mm
07:06 AM 50.2°F10.1°C 19.2°F-7.1°C 29% 1.0 mph WNW1.6 kmh WNW 3.0 mph4.8 kmh 29.77 in1008.1 mb 0.00 in0.0 mm 0.00 in0.0 mm 0.00 in0.0 mm
07:11 AM 51.3°F10.7°C 19.3°F-7.1°C 28% 6.0 mph ENE9.7 kmh ENE 9.0 mph14.5 kmh 29.77 in1008.1 mb 0.00 in0.0 mm 0.00 in0.0 mm 0.00 in0.0 mm
07:16 AM 52.8°F11.6°C 19.8°F-6.8°C 27% 2.0 mph ENE3.2 kmh ENE 9.0 mph14.5 kmh 29.79 in1008.8 mb 0.00 in0.0 mm 0.00 in0.0 mm 0.00 in0.0 mm
07:21 AM 53.8°F12.1°C 19.7°F-6.8°C 26% 4.0 mph ENE6.4 kmh ENE 9.0 mph14.5 kmh 29.79 in1008.8 mb 0.00 in0.0 mm 0.00 in0.0 mm 0.00 in0.0 mm
07:26 AM 54.4°F12.4°C 20.2°F-6.6°C 26% 1.0 mph E1.6 kmh E 9.0 mph14.5 kmh 29.79 in1008.8 mb 0.00 in0.0 mm 0.00 in0.0 mm 0.00 in0.0 mm
07:31 AM 54.5°F12.5°C 19.4°F-7.0°C 25% 5.0 mph E8.0 kmh E 5.0 mph8.0 kmh 29.78 in1008.5 mb 0.00 in0.0 mm 0.00 in0.0 mm 0.00 in0.0 mm
07:36 AM 55.0°F12.8°C 19.8°F-6.8°C 25% 4.0 mph E6.4 kmh E 6.0 mph9.7 kmh 29.78 in1008.5 mb 0.00 in0.0 mm 0.00 in0.0 mm 0.00 in0.0 mm
07:41 AM 55.7°F13.2°C 19.5°F-6.9°C 24% 3.0 mph E4.8 kmh E 9.0 mph14.5 kmh 29.78 in1008.5 mb 0.00 in0.0 mm 0.00 in0.0 mm 0.00 in0.0 mm
07:46 AM 56.0°F13.3°C 19.7°F-6.8°C 24% 9.0 mph E14.5 kmh E 9.0 mph14.5 kmh 29.78 in1008.5 mb 0.00 in0.0 mm 0.00 in0.0 mm 0.00 in0.0 mm
07:51 AM 56.3°F13.5°C 20.0°F-6.7°C 24% 3.0 mph SE4.8 kmh SE 9.0 mph14.5 kmh 29.78 in1008.5 mb 0.00 in0.0 mm 0.00 in0.0 mm 0.00 in0.0 mm
07:56 AM 56.6°F13.7°C 20.2°F-6.6°C 24% 4.0 mph E6.4 kmh E 10.0 mph16.1 kmh 29.78 in1008.5 mb 0.00 in0.0 mm 0.00 in0.0 mm 0.00 in0.0 mm
08:01 AM 56.9°F13.8°C 20.5°F-6.4°C 24% 3.0 mph SE4.8 kmh SE 10.0 mph16.1 kmh 29.78 in1008.5 mb 0.00 in0.0 mm 0.00 in0.0 mm 0.00 in0.0 mm
08:06 AM 57.2°F14.0°C 19.7°F-6.8°C 23% 5.0 mph ESE8.0 kmh ESE 10.0 mph16.1 kmh 29.78 in1008.5 mb 0.00 in0.0 mm 0.00 in0.0 mm 0.00 in0.0 mm
08:11 AM 57.8°F14.3°C 20.3°F-6.5°C 23% 3.0 mph ESE4.8 kmh ESE 10.0 mph16.1 kmh 29.78 in1008.5 mb 0.00 in0.0 mm 0.00 in0.0 mm 0.00 in0.0 mm
08:16 AM 58.3°F14.6°C 20.7°F-6.3°C 23% 4.0 mph E6.4 kmh E 10.0 mph16.1 kmh 29.79 in1008.8 mb 0.00 in0.0 mm 0.00 in0.0 mm 0.00 in0.0 mm
08:21 AM 59.2°F15.1°C 19.3°F-7.1°C 21% 6.0 mph E9.7 kmh E 13.0 mph20.9 kmh 29.79 in1008.8 mb 0.00 in0.0 mm 0.00 in0.0 mm 0.00 in0.0 mm
08:26 AM 60.5°F15.8°C 19.2°F-7.1°C 20% 11.0 mph ENE17.7 kmh ENE 15.0 mph24.1 kmh 29.79 in1008.8 mb 0.00 in0.0 mm 0.00 in0.0 mm 0.00 in0.0 mm
08:31 AM 61.3°F16.3°C 19.9°F-6.7°C 20% 3.0 mph NE4.8 kmh NE 15.0 mph24.1 kmh 29.77 in1008.1 mb 0.00 in0.0 mm 0.00 in0.0 mm 0.00 in0.0 mm
08:36 AM 61.8°F16.6°C 19.1°F-7.2°C 19% 6.0 mph E9.7 kmh E 15.0 mph24.1 kmh 29.77 in1008.1 mb 0.00 in0.0 mm 0.00 in0.0 mm 0.00 in0.0 mm
08:41 AM 62.3°F16.8°C 18.3°F-7.6°C 18% 14.0 mph ENE22.5 kmh ENE 17.0 mph27.4 kmh 29.77 in1008.1 mb 0.00 in0.0 mm 0.00 in0.0 mm 0.00 in0.0 mm
08:46 AM 62.7°F17.1°C 18.6°F-7.4°C 18% 10.0 mph ENE16.1 kmh ENE 18.0 mph29.0 kmh 29.77 in1008.1 mb 0.00 in0.0 mm 0.00 in0.0 mm 0.00 in0.0 mm
08:51 AM 63.2°F17.3°C 19.0°F-7.2°C 18% 15.0 mph NE24.1 kmh NE 18.0 mph29.0 kmh 29.77 in1008.1 mb 0.00 in0.0 mm 0.00 in0.0 mm 0.00 in0.0 mm
08:56 AM 63.5°F17.5°C 19.2°F-7.1°C 18% 9.0 mph ENE14.5 kmh ENE 18.0 mph29.0 kmh 29.77 in1008.1 mb 0.00 in0.0 mm 0.00 in0.0 mm 0.00 in0.0 mm
09:01 AM 63.5°F17.5°C 19.2°F-7.1°C 18% 12.0 mph ENE19.3 kmh ENE 18.0 mph29.0 kmh 29.77 in1008.1 mb 0.00 in0.0 mm 0.00 in0.0 mm 0.00 in0.0 mm
09:06 AM 63.9°F17.7°C 19.6°F-6.9°C 18% 11.0 mph ENE17.7 kmh ENE 17.0 mph27.4 kmh 29.77 in1008.1 mb 0.00 in0.0 mm 0.00 in0.0 mm 0.00 in0.0 mm
09:11 AM 64.2°F17.9°C 19.8°F-6.8°C 18% 9.0 mph E14.5 kmh E 17.0 mph27.4 kmh 29.77 in1008.1 mb 0.00 in0.0 mm 0.00 in0.0 mm 0.00 in0.0 mm
09:16 AM 64.5°F18.1°C 20.1°F-6.6°C 18% 7.0 mph E11.3 kmh E 15.0 mph24.1 kmh 29.78 in1008.5 mb 0.00 in0.0 mm 0.00 in0.0 mm 0.00 in0.0 mm
09:21 AM 64.5°F18.1°C 18.7°F-7.4°C 17% 11.0 mph E17.7 kmh E 17.0 mph27.4 kmh 29.78 in1008.5 mb 0.00 in0.0 mm 0.00 in0.0 mm 0.00 in0.0 mm
09:26 AM 64.7°F18.2°C 20.2°F-6.6°C 18% 11.0 mph E17.7 kmh E 17.0 mph27.4 kmh 29.78 in1008.5 mb 0.00 in0.0 mm 0.00 in0.0 mm 0.00 in0.0 mm
09:31 AM 65.0°F18.3°C 19.1°F-7.2°C 17% 12.0 mph ENE19.3 kmh ENE 17.0 mph27.4 kmh 29.77 in1008.1 mb 0.00 in0.0 mm 0.00 in0.0 mm 0.00 in0.0 mm
09:36 AM 65.0°F18.3°C 19.1°F-7.2°C 17% 13.0 mph NE20.9 kmh NE 18.0 mph29.0 kmh 29.77 in1008.1 mb 0.00 in0.0 mm 0.00 in0.0 mm 0.00 in0.0 mm
09:41 AM 64.8°F18.2°C 19.0°F-7.2°C 17% 7.0 mph ENE11.3 kmh ENE 18.0 mph29.0 kmh 29.77 in1008.1 mb 0.00 in0.0 mm 0.00 in0.0 mm 0.00 in0.0 mm
09:46 AM 65.2°F18.4°C 19.3°F-7.1°C 17% 11.0 mph NE17.7 kmh NE 18.0 mph29.0 kmh 29.77 in1008.1 mb 0.00 in0.0 mm 0.00 in0.0 mm 0.00 in0.0 mm
09:51 AM 65.6°F18.7°C 18.2°F-7.7°C 16% 8.0 mph ENE12.9 kmh ENE 18.0 mph29.0 kmh 29.77 in1008.1 mb 0.00 in0.0 mm 0.00 in0.0 mm 0.00 in0.0 mm
09:56 AM 66.0°F18.9°C 19.9°F-6.7°C 17% 10.0 mph E16.1 kmh E 17.0 mph27.4 kmh 29.77 in1008.1 mb 0.00 in0.0 mm 0.00 in0.0 mm 0.00 in0.0 mm
10:01 AM 66.0°F18.9°C 19.9°F-6.7°C 17% 7.0 mph E11.3 kmh E 18.0 mph29.0 kmh 29.77 in1008.1 mb 0.00 in0.0 mm 0.00 in0.0 mm 0.00 in0.0 mm
10:06 AM 66.4°F19.1°C 18.9°F-7.3°C 16% 13.0 mph NE20.9 kmh NE 19.0 mph30.6 kmh 29.77 in1008.1 mb 0.00 in0.0 mm 0.00 in0.0 mm 0.00 in0.0 mm
10:11 AM 66.9°F19.4°C 20.7°F-6.3°C 17% 9.0 mph SE14.5 kmh SE 19.0 mph30.6 kmh 29.77 in1008.1 mb 0.00 in0.0 mm 0.00 in0.0 mm 0.00 in0.0 mm
10:16 AM 67.4°F19.7°C 19.7°F-6.8°C 16% 9.0 mph NE14.5 kmh NE 19.0 mph30.6 kmh 29.76 in1007.8 mb 0.00 in0.0 mm 0.00 in0.0 mm 0.00 in0.0 mm
10:21 AM 67.9°F19.9°C 20.1°F-6.6°C 16% 13.0 mph NE20.9 kmh NE 19.0 mph30.6 kmh 29.76 in1007.8 mb 0.00 in0.0 mm 0.00 in0.0 mm 0.00 in0.0 mm
10:26 AM 67.9°F19.9°C 20.1°F-6.6°C 16% 13.0 mph ENE20.9 kmh ENE 19.0 mph30.6 kmh 29.76 in1007.8 mb 0.00 in0.0 mm 0.00 in0.0 mm 0.00 in0.0 mm
10:31 AM 68.1°F20.1°C 18.7°F-7.4°C 15% 16.0 mph NE25.7 kmh NE 23.0 mph37.0 kmh 29.76 in1007.8 mb 0.00 in0.0 mm 0.00 in0.0 mm 0.00 in0.0 mm
10:36 AM 68.3°F20.2°C 20.4°F-6.4°C 16% 16.0 mph NE25.7 kmh NE 23.0 mph37.0 kmh 29.76 in1007.8 mb 0.00 in0.0 mm 0.00 in0.0 mm 0.00 in0.0 mm
10:41 AM 68.4°F20.2°C 20.5°F-6.4°C 16% 12.0 mph E19.3 kmh E 23.0 mph37.0 kmh 29.76 in1007.8 mb 0.00 in0.0 mm 0.00 in0.0 mm 0.00 in0.0 mm
10:46 AM 68.8°F20.4°C 19.3°F-7.1°C 15% 9.0 mph NE14.5 kmh NE 23.0 mph37.0 kmh 29.75 in1007.5 mb 0.00 in0.0 mm 0.00 in0.0 mm 0.00 in0.0 mm
10:51 AM 68.9°F20.5°C 19.4°F-7.0°C 15% 17.0 mph ENE27.4 kmh ENE 23.0 mph37.0 kmh 29.75 in1007.5 mb 0.00 in0.0 mm 0.00 in0.0 mm 0.00 in0.0 mm
10:56 AM 68.9°F20.5°C 19.4°F-7.0°C 15% 11.0 mph ENE17.7 kmh ENE 23.0 mph37.0 kmh 29.75 in1007.5 mb 0.00 in0.0 mm 0.00 in0.0 mm 0.00 in0.0 mm
11:01 AM 69.4°F20.8°C 19.8°F-6.8°C 15% 11.0 mph ENE17.7 kmh ENE 22.0 mph35.4 kmh 29.75 in1007.5 mb 0.00 in0.0 mm 0.00 in0.0 mm 0.00 in0.0 mm
11:06 AM 69.9°F21.1°C 20.2°F-6.6°C 15% 14.0 mph E22.5 kmh E 22.0 mph35.4 kmh 29.75 in1007.5 mb 0.00 in0.0 mm 0.00 in0.0 mm 0.00 in0.0 mm
11:11 AM 70.3°F21.3°C 18.9°F-7.3°C 14% 9.0 mph ENE14.5 kmh ENE 21.0 mph33.8 kmh 29.75 in1007.5 mb 0.00 in0.0 mm 0.00 in0.0 mm 0.00 in0.0 mm
11:16 AM 70.8°F21.6°C 20.9°F-6.2°C 15% 12.0 mph ENE19.3 kmh ENE 21.0 mph33.8 kmh 29.75 in1007.5 mb 0.00 in0.0 mm 0.00 in0.0 mm 0.00 in0.0 mm
11:21 AM 70.8°F21.6°C 19.3°F-7.1°C 14% 14.0 mph ENE22.5 kmh ENE 20.0 mph32.2 kmh 29.75 in1007.5 mb 0.00 in0.0 mm 0.00 in0.0 mm 0.00 in0.0 mm
11:26 AM 70.1°F21.2°C 18.7°F-7.4°C 14% 7.0 mph SE11.3 kmh SE 23.0 mph37.0 kmh 29.75 in1007.5 mb 0.00 in0.0 mm 0.00 in0.0 mm 0.00 in0.0 mm
11:31 AM 70.9°F21.6°C 22.5°F-5.3°C 16% 16.0 mph E25.7 kmh E 23.0 mph37.0 kmh 29.74 in1007.1 mb 0.00 in0.0 mm 0.00 in0.0 mm 0.00 in0.0 mm
11:36 AM 71.1°F21.7°C 19.5°F-6.9°C 14% 15.0 mph ENE24.1 kmh ENE 23.0 mph37.0 kmh 29.74 in1007.1 mb 0.00 in0.0 mm 0.00 in0.0 mm 0.00 in0.0 mm
11:41 AM 71.1°F21.7°C 21.1°F-6.1°C 15% 9.0 mph E14.5 kmh E 23.0 mph37.0 kmh 29.74 in1007.1 mb 0.00 in0.0 mm 0.00 in0.0 mm 0.00 in0.0 mm
11:46 AM 71.8°F22.1°C 20.0°F-6.7°C 14% 7.0 mph E11.3 kmh E 19.0 mph30.6 kmh 29.73 in1006.8 mb 0.00 in0.0 mm 0.00 in0.0 mm 0.00 in0.0 mm
11:51 AM 72.0°F22.2°C 21.8°F-5.7°C 15% 15.0 mph ESE24.1 kmh ESE 19.0 mph30.6 kmh 29.73 in1006.8 mb 0.00 in0.0 mm 0.00 in0.0 mm 0.00 in0.0 mm
11:56 AM 72.3°F22.4°C 20.4°F-6.4°C 14% 10.0 mph ENE16.1 kmh ENE 17.0 mph27.4 kmh 29.73 in1006.8 mb 0.00 in0.0 mm 0.00 in0.0 mm 0.00 in0.0 mm
12:01 PM 73.0°F22.8°C 21.0°F-6.1°C 14% 7.0 mph E11.3 kmh E 17.0 mph27.4 kmh 29.73 in1006.8 mb 0.00 in0.0 mm 0.00 in0.0 mm 0.00 in0.0 mm
12:06 PM 73.0°F22.8°C 21.0°F-6.1°C 14% 13.0 mph E20.9 kmh E 17.0 mph27.4 kmh 29.73 in1006.8 mb 0.00 in0.0 mm 0.00 in0.0 mm 0.00 in0.0 mm
12:11 PM 73.0°F22.8°C 21.0°F-6.1°C 14% 8.0 mph ENE12.9 kmh ENE 19.0 mph30.6 kmh 29.73 in1006.8 mb 0.00 in0.0 mm 0.00 in0.0 mm 0.00 in0.0 mm
12:16 PM 73.0°F22.8°C 21.0°F-6.1°C 14% 10.0 mph E16.1 kmh E 20.0 mph32.2 kmh 29.72 in1006.4 mb 0.00 in0.0 mm 0.00 in0.0 mm 0.00 in0.0 mm
12:21 PM 73.0°F22.8°C 21.0°F-6.1°C 14% 4.0 mph E6.4 kmh E 20.0 mph32.2 kmh 29.72 in1006.4 mb 0.00 in0.0 mm 0.00 in0.0 mm 0.00 in0.0 mm
12:26 PM 73.3°F22.9°C 21.2°F-6.0°C 14% 10.0 mph E16.1 kmh E 20.0 mph32.2 kmh 29.72 in1006.4 mb 0.00 in0.0 mm 0.00 in0.0 mm 0.00 in0.0 mm
12:31 PM 73.9°F23.3°C 20.0°F-6.7°C 13% 9.0 mph ENE14.5 kmh ENE 22.0 mph35.4 kmh 29.71 in1006.1 mb 0.00 in0.0 mm 0.00 in0.0 mm 0.00 in0.0 mm
12:36 PM 73.9°F23.3°C 21.7°F-5.7°C 14% 6.0 mph E9.7 kmh E 22.0 mph35.4 kmh 29.71 in1006.1 mb 0.00 in0.0 mm 0.00 in0.0 mm 0.00 in0.0 mm
12:41 PM 74.0°F23.3°C 21.8°F-5.7°C 14% 9.0 mph SE14.5 kmh SE 22.0 mph35.4 kmh 29.71 in1006.1 mb 0.00 in0.0 mm 0.00 in0.0 mm 0.00 in0.0 mm
12:46 PM 73.9°F23.3°C 21.7°F-5.7°C 14% 12.0 mph E19.3 kmh E 22.0 mph35.4 kmh 29.71 in1006.1 mb 0.00 in0.0 mm 0.00 in0.0 mm 0.00 in0.0 mm
12:51 PM 73.3°F22.9°C 19.5°F-6.9°C 13% 9.0 mph E14.5 kmh E 18.0 mph29.0 kmh 29.71 in1006.1 mb 0.00 in0.0 mm 0.00 in0.0 mm 0.00 in0.0 mm
12:56 PM 73.9°F23.3°C 23.3°F-4.8°C 15% 4.0 mph ESE6.4 kmh ESE 18.0 mph29.0 kmh 29.71 in1006.1 mb 0.00 in0.0 mm 0.00 in0.0 mm 0.00 in0.0 mm
01:01 PM 74.0°F23.3°C 20.0°F-6.7°C 13% 10.0 mph E16.1 kmh E 18.0 mph29.0 kmh 29.71 in1006.1 mb 0.00 in0.0 mm 0.00 in0.0 mm 0.00 in0.0 mm
01:06 PM 73.9°F23.3°C 20.0°F-6.7°C 13% 15.0 mph ENE24.1 kmh ENE 19.0 mph30.6 kmh 29.71 in1006.1 mb 0.00 in0.0 mm 0.00 in0.0 mm 0.00 in0.0 mm
01:11 PM 73.7°F23.2°C 21.5°F-5.8°C 14% 8.0 mph ENE12.9 kmh ENE 19.0 mph30.6 kmh 29.71 in1006.1 mb 0.00 in0.0 mm 0.00 in0.0 mm 0.00 in0.0 mm
01:16 PM 74.2°F23.4°C 21.9°F-5.6°C 14% 12.0 mph ENE19.3 kmh ENE 22.0 mph35.4 kmh 29.71 in1006.1 mb 0.00 in0.0 mm 0.00 in0.0 mm 0.00 in0.0 mm
01:21 PM 74.6°F23.7°C 22.3°F-5.4°C 14% 6.0 mph E9.7 kmh E 22.0 mph35.4 kmh 29.71 in1006.1 mb 0.00 in0.0 mm 0.00 in0.0 mm 0.00 in0.0 mm
01:26 PM 74.7°F23.7°C 18.7°F-7.4°C 12% 14.0 mph ENE22.5 kmh ENE 22.0 mph35.4 kmh 29.71 in1006.1 mb 0.00 in0.0 mm 0.00 in0.0 mm 0.00 in0.0 mm
01:31 PM 74.2°F23.4°C 18.3°F-7.6°C 12% 5.0 mph E8.0 kmh E 22.0 mph35.4 kmh 29.71 in1006.1 mb 0.00 in0.0 mm 0.00 in0.0 mm 0.00 in0.0 mm
01:36 PM 74.4°F23.6°C 20.4°F-6.4°C 13% 5.0 mph NE8.0 kmh NE 18.0 mph29.0 kmh 29.71 in1006.1 mb 0.00 in0.0 mm 0.00 in0.0 mm 0.00 in0.0 mm
01:41 PM 75.1°F23.9°C 20.9°F-6.2°C 13% 11.0 mph ENE17.7 kmh ENE 18.0 mph29.0 kmh 29.71 in1006.1 mb 0.00 in0.0 mm 0.00 in0.0 mm 0.00 in0.0 mm
01:46 PM 74.9°F23.8°C 22.5°F-5.3°C 14% 4.0 mph SSE6.4 kmh SSE 18.0 mph29.0 kmh 29.69 in1005.4 mb 0.00 in0.0 mm 0.00 in0.0 mm 0.00 in0.0 mm
01:51 PM 74.7°F23.7°C 20.6°F-6.3°C 13% 10.0 mph ENE16.1 kmh ENE 18.0 mph29.0 kmh 29.69 in1005.4 mb 0.00 in0.0 mm 0.00 in0.0 mm 0.00 in0.0 mm
01:56 PM 74.9°F23.8°C 20.7°F-6.3°C 13% 12.0 mph SE19.3 kmh SE 22.0 mph35.4 kmh 29.69 in1005.4 mb 0.00 in0.0 mm 0.00 in0.0 mm 0.00 in0.0 mm
02:01 PM 74.6°F23.7°C 20.5°F-6.4°C 13% 15.0 mph E24.1 kmh E 22.0 mph35.4 kmh 29.69 in1005.4 mb 0.00 in0.0 mm 0.00 in0.0 mm 0.00 in0.0 mm
02:06 PM 74.9°F23.8°C 22.5°F-5.3°C 14% 9.0 mph ENE14.5 kmh ENE 22.0 mph35.4 kmh 29.69 in1005.4 mb 0.00 in0.0 mm 0.00 in0.0 mm 0.00 in0.0 mm
02:11 PM 74.9°F23.8°C 20.7°F-6.3°C 13% 11.0 mph E17.7 kmh E 22.0 mph35.4 kmh 29.69 in1005.4 mb 0.00 in0.0 mm 0.00 in0.0 mm 0.00 in0.0 mm
02:16 PM 74.9°F23.8°C 24.1°F-4.4°C 15% 11.0 mph E17.7 kmh E 16.0 mph25.7 kmh 29.68 in1005.1 mb 0.00 in0.0 mm 0.00 in0.0 mm 0.00 in0.0 mm
02:21 PM 75.6°F24.2°C 23.0°F-5.0°C 14% 2.0 mph NE3.2 kmh NE 16.0 mph25.7 kmh 29.68 in1005.1 mb 0.00 in0.0 mm 0.00 in0.0 mm 0.00 in0.0 mm
02:26 PM 75.4°F24.1°C 21.1°F-6.1°C 13% 13.0 mph NE20.9 kmh NE 15.0 mph24.1 kmh 29.68 in1005.1 mb 0.00 in0.0 mm 0.00 in0.0 mm 0.00 in0.0 mm
02:31 PM 74.7°F23.7°C 20.6°F-6.3°C 13% 6.0 mph ENE9.7 kmh ENE 15.0 mph24.1 kmh 29.68 in1005.1 mb 0.00 in0.0 mm 0.00 in0.0 mm 0.00 in0.0 mm
02:36 PM 74.7°F23.7°C 18.7°F-7.4°C 12% 12.0 mph ENE19.3 kmh ENE 19.0 mph30.6 kmh 29.68 in1005.1 mb 0.00 in0.0 mm 0.00 in0.0 mm 0.00 in0.0 mm
02:41 PM 75.1°F23.9°C 20.9°F-6.2°C 13% 9.0 mph ENE14.5 kmh ENE 19.0 mph30.6 kmh 29.68 in1005.1 mb 0.00 in0.0 mm 0.00 in0.0 mm 0.00 in0.0 mm
02:46 PM 75.3°F24.1°C 21.1°F-6.1°C 13% 8.0 mph ENE12.9 kmh ENE 19.0 mph30.6 kmh 29.68 in1005.1 mb 0.00 in0.0 mm 0.00 in0.0 mm 0.00 in0.0 mm
02:51 PM 75.3°F24.1°C 21.1°F-6.1°C 13% 4.0 mph E6.4 kmh E 19.0 mph30.6 kmh 29.68 in1005.1 mb 0.00 in0.0 mm 0.00 in0.0 mm 0.00 in0.0 mm
02:56 PM 75.6°F24.2°C 21.3°F-5.9°C 13% 10.0 mph E16.1 kmh E 16.0 mph25.7 kmh 29.68 in1005.1 mb 0.00 in0.0 mm 0.00 in0.0 mm 0.00 in0.0 mm
03:01 PM 75.6°F24.2°C 21.3°F-5.9°C 13% 3.0 mph NE4.8 kmh NE 16.0 mph25.7 kmh 29.66 in1004.4 mb 0.00 in0.0 mm 0.00 in0.0 mm 0.00 in0.0 mm
03:06 PM 75.4°F24.1°C 27.5°F-2.5°C 17% 9.0 mph NE14.5 kmh NE 16.0 mph25.7 kmh 29.66 in1004.4 mb 0.00 in0.0 mm 0.00 in0.0 mm 0.00 in0.0 mm
03:11 PM 75.3°F24.1°C 21.1°F-6.1°C 13% 6.0 mph SE9.7 kmh SE 19.0 mph30.6 kmh 29.66 in1004.4 mb 0.00 in0.0 mm 0.00 in0.0 mm 0.00 in0.0 mm
03:16 PM 75.4°F24.1°C 21.1°F-6.1°C 13% 5.0 mph NE8.0 kmh NE 19.0 mph30.6 kmh 29.67 in1004.7 mb 0.00 in0.0 mm 0.00 in0.0 mm 0.00 in0.0 mm
03:21 PM 75.4°F24.1°C 21.1°F-6.1°C 13% 6.0 mph NE9.7 kmh NE 19.0 mph30.6 kmh 29.67 in1004.7 mb 0.00 in0.0 mm 0.00 in0.0 mm 0.00 in0.0 mm
03:26 PM 75.3°F24.1°C 21.1°F-6.1°C 13% 9.0 mph NE14.5 kmh NE 19.0 mph30.6 kmh 29.67 in1004.7 mb 0.00 in0.0 mm 0.00 in0.0 mm 0.00 in0.0 mm
03:31 PM 74.9°F23.8°C 20.7°F-6.3°C 13% 5.0 mph ENE8.0 kmh ENE 17.0 mph27.4 kmh 29.65 in1004.1 mb 0.00 in0.0 mm 0.00 in0.0 mm 0.00 in0.0 mm
03:36 PM 75.1°F23.9°C 20.9°F-6.2°C 13% 7.0 mph ENE11.3 kmh ENE 17.0 mph27.4 kmh 29.65 in1004.1 mb 0.00 in0.0 mm 0.00 in0.0 mm 0.00 in0.0 mm
03:41 PM 75.1°F23.9°C 22.7°F-5.2°C 14% 3.0 mph E4.8 kmh E 14.0 mph22.5 kmh 29.65 in1004.1 mb 0.00 in0.0 mm 0.00 in0.0 mm 0.00 in0.0 mm
03:46 PM 75.3°F24.1°C 21.1°F-6.1°C 13% 5.0 mph SE8.0 kmh SE 14.0 mph22.5 kmh 29.66 in1004.4 mb 0.00 in0.0 mm 0.00 in0.0 mm 0.00 in0.0 mm
03:51 PM 75.6°F24.2°C 19.4°F-7.0°C 12% 7.0 mph NE11.3 kmh NE 14.0 mph22.5 kmh 29.66 in1004.4 mb 0.00 in0.0 mm 0.00 in0.0 mm 0.00 in0.0 mm
03:56 PM 75.3°F24.1°C 19.2°F-7.1°C 12% 14.0 mph NE22.5 kmh NE 14.0 mph22.5 kmh 29.66 in1004.4 mb 0.00 in0.0 mm 0.00 in0.0 mm 0.00 in0.0 mm
04:01 PM 75.6°F24.2°C 19.4°F-7.0°C 12% 9.0 mph NE14.5 kmh NE 14.0 mph22.5 kmh 29.66 in1004.4 mb 0.00 in0.0 mm 0.00 in0.0 mm 0.00 in0.0 mm
04:06 PM 75.6°F24.2°C 21.3°F-5.9°C 13% 9.0 mph NE14.5 kmh NE 14.0 mph22.5 kmh 29.66 in1004.4 mb 0.00 in0.0 mm 0.00 in0.0 mm 0.00 in0.0 mm
04:11 PM 75.6°F24.2°C 19.4°F-7.0°C 12% 9.0 mph NE14.5 kmh NE 14.0 mph22.5 kmh 29.66 in1004.4 mb 0.00 in0.0 mm 0.00 in0.0 mm 0.00 in0.0 mm
04:16 PM 75.4°F24.1°C 21.1°F-6.1°C 13% 5.0 mph ENE8.0 kmh ENE 14.0 mph22.5 kmh 29.66 in1004.4 mb 0.00 in0.0 mm 0.00 in0.0 mm 0.00 in0.0 mm
04:21 PM 75.6°F24.2°C 21.3°F-5.9°C 13% 13.0 mph NE20.9 kmh NE 14.0 mph22.5 kmh 29.66 in1004.4 mb 0.00 in0.0 mm 0.00 in0.0 mm 0.00 in0.0 mm
04:26 PM 75.3°F24.1°C 21.1°F-6.1°C 13% 12.0 mph NE19.3 kmh NE 14.0 mph22.5 kmh 29.66 in1004.4 mb 0.00 in0.0 mm 0.00 in0.0 mm 0.00 in0.0 mm
04:31 PM 74.9°F23.8°C 20.7°F-6.3°C 13% 7.0 mph NNE11.3 kmh NNE 14.0 mph22.5 kmh 29.66 in1004.4 mb 0.00 in0.0 mm 0.00 in0.0 mm 0.00 in0.0 mm
04:36 PM 75.1°F23.9°C 20.9°F-6.2°C 13% 6.0 mph E9.7 kmh E 14.0 mph22.5 kmh 29.66 in1004.4 mb 0.00 in0.0 mm 0.00 in0.0 mm 0.00 in0.0 mm
04:41 PM 74.7°F23.7°C 20.6°F-6.3°C 13% 12.0 mph NE19.3 kmh NE 16.0 mph25.7 kmh 29.66 in1004.4 mb 0.00 in0.0 mm 0.00 in0.0 mm 0.00 in0.0 mm
04:46 PM 74.7°F23.7°C 20.6°F-6.3°C 13% 13.0 mph E20.9 kmh E 16.0 mph25.7 kmh 29.67 in1004.7 mb 0.00 in0.0 mm 0.00 in0.0 mm 0.00 in0.0 mm
04:51 PM 74.7°F23.7°C 20.6°F-6.3°C 13% 8.0 mph NE12.9 kmh NE 16.0 mph25.7 kmh 29.67 in1004.7 mb 0.00 in0.0 mm 0.00 in0.0 mm 0.00 in0.0 mm
04:56 PM 74.9°F23.8°C 20.7°F-6.3°C 13% 6.0 mph NE9.7 kmh NE 16.0 mph25.7 kmh 29.67 in1004.7 mb 0.00 in0.0 mm 0.00 in0.0 mm 0.00 in0.0 mm
05:01 PM 74.7°F23.7°C 20.6°F-6.3°C 13% 9.0 mph NE14.5 kmh NE 12.0 mph19.3 kmh 29.67 in1004.7 mb 0.00 in0.0 mm 0.00 in0.0 mm 0.00 in0.0 mm
05:06 PM 74.6°F23.7°C 20.5°F-6.4°C 13% 7.0 mph NE11.3 kmh NE 15.0 mph24.1 kmh 29.67 in1004.7 mb 0.00 in0.0 mm 0.00 in0.0 mm 0.00 in0.0 mm
05:11 PM 74.2°F23.4°C 20.2°F-6.6°C 13% 6.0 mph E9.7 kmh E 17.0 mph27.4 kmh 29.67 in1004.7 mb 0.00 in0.0 mm 0.00 in0.0 mm 0.00 in0.0 mm
05:16 PM 74.2°F23.4°C 20.2°F-6.6°C 13% 5.0 mph NE8.0 kmh NE 17.0 mph27.4 kmh 29.67 in1004.7 mb 0.00 in0.0 mm 0.00 in0.0 mm 0.00 in0.0 mm
05:21 PM 73.9°F23.3°C 20.0°F-6.7°C 13% 11.0 mph NE17.7 kmh NE 17.0 mph27.4 kmh 29.67 in1004.7 mb 0.00 in0.0 mm 0.00 in0.0 mm 0.00 in0.0 mm
05:26 PM 73.7°F23.2°C 19.8°F-6.8°C 13% 7.0 mph ENE11.3 kmh ENE 17.0 mph27.4 kmh 29.67 in1004.7 mb 0.00 in0.0 mm 0.00 in0.0 mm 0.00 in0.0 mm
05:31 PM 73.9°F23.3°C 20.0°F-6.7°C 13% 6.0 mph E9.7 kmh E 14.0 mph22.5 kmh 29.67 in1004.7 mb 0.00 in0.0 mm 0.00 in0.0 mm 0.00 in0.0 mm
05:36 PM 73.9°F23.3°C 20.0°F-6.7°C 13% 10.0 mph NE16.1 kmh NE 14.0 mph22.5 kmh 29.67 in1004.7 mb 0.00 in0.0 mm 0.00 in0.0 mm 0.00 in0.0 mm
05:41 PM 73.5°F23.1°C 19.7°F-6.8°C 13% 9.0 mph NE14.5 kmh NE 14.0 mph22.5 kmh 29.67 in1004.7 mb 0.00 in0.0 mm 0.00 in0.0 mm 0.00 in0.0 mm
05:46 PM 73.5°F23.1°C 19.7°F-6.8°C 13% 7.0 mph NE11.3 kmh NE 14.0 mph22.5 kmh 29.66 in1004.4 mb 0.00 in0.0 mm 0.00 in0.0 mm 0.00 in0.0 mm
05:51 PM 73.3°F22.9°C 19.5°F-6.9°C 13% 9.0 mph NE14.5 kmh NE 12.0 mph19.3 kmh 29.66 in1004.4 mb 0.00 in0.0 mm 0.00 in0.0 mm 0.00 in0.0 mm
05:56 PM 73.2°F22.9°C 19.4°F-7.0°C 13% 5.0 mph E8.0 kmh E 14.0 mph22.5 kmh 29.66 in1004.4 mb 0.00 in0.0 mm 0.00 in0.0 mm 0.00 in0.0 mm
06:01 PM 73.0°F22.8°C 19.3°F-7.1°C 13% 10.0 mph NE16.1 kmh NE 14.0 mph22.5 kmh 29.67 in1004.7 mb 0.00 in0.0 mm 0.00 in0.0 mm 0.00 in0.0 mm
06:06 PM 72.8°F22.7°C 19.1°F-7.2°C 13% 7.0 mph ENE11.3 kmh ENE 14.0 mph22.5 kmh 29.67 in1004.7 mb 0.00 in0.0 mm 0.00 in0.0 mm 0.00 in0.0 mm
06:11 PM 72.7°F22.6°C 19.0°F-7.2°C 13% 5.0 mph E8.0 kmh E 14.0 mph22.5 kmh 29.67 in1004.7 mb 0.00 in0.0 mm 0.00 in0.0 mm 0.00 in0.0 mm
06:16 PM 72.5°F22.5°C 18.9°F-7.3°C 13% 4.0 mph NE6.4 kmh NE 7.0 mph11.3 kmh 29.67 in1004.7 mb 0.00 in0.0 mm 0.00 in0.0 mm 0.00 in0.0 mm
06:21 PM 72.1°F22.3°C 18.6°F-7.4°C 13% 3.0 mph NE4.8 kmh NE 8.0 mph12.9 kmh 29.67 in1004.7 mb 0.00 in0.0 mm 0.00 in0.0 mm 0.00 in0.0 mm
06:26 PM 72.0°F22.2°C 20.2°F-6.6°C 14% 4.0 mph NE6.4 kmh NE 8.0 mph12.9 kmh 29.67 in1004.7 mb 0.00 in0.0 mm 0.00 in0.0 mm 0.00 in0.0 mm
06:31 PM 71.6°F22.0°C 19.9°F-6.7°C 14% 3.0 mph NE4.8 kmh NE 8.0 mph12.9 kmh 29.67 in1004.7 mb 0.00 in0.0 mm 0.00 in0.0 mm 0.00 in0.0 mm
06:36 PM 71.3°F21.8°C 19.6°F-6.9°C 14% 4.0 mph NE6.4 kmh NE 8.0 mph12.9 kmh 29.67 in1004.7 mb 0.00 in0.0 mm 0.00 in0.0 mm 0.00 in0.0 mm
06:41 PM 71.1°F21.7°C 19.5°F-6.9°C 14% 3.0 mph NE4.8 kmh NE 5.0 mph8.0 kmh 29.67 in1004.7 mb 0.00 in0.0 mm 0.00 in0.0 mm 0.00 in0.0 mm
06:46 PM 70.9°F21.6°C 19.3°F-7.1°C 14% 4.0 mph NE6.4 kmh NE 6.0 mph9.7 kmh 29.67 in1004.7 mb 0.00 in0.0 mm 0.00 in0.0 mm 0.00 in0.0 mm
06:51 PM 70.6°F21.4°C 19.1°F-7.2°C 14% 3.0 mph NE4.8 kmh NE 6.0 mph9.7 kmh 29.67 in1004.7 mb 0.00 in0.0 mm 0.00 in0.0 mm 0.00 in0.0 mm
06:56 PM 70.3°F21.3°C 20.5°F-6.4°C 15% 6.0 mph NNE9.7 kmh NNE 7.0 mph11.3 kmh 29.67 in1004.7 mb 0.00 in0.0 mm 0.00 in0.0 mm 0.00 in0.0 mm
07:01 PM 70.1°F21.2°C 20.3°F-6.5°C 15% 5.0 mph NE8.0 kmh NE 7.0 mph11.3 kmh 29.68 in1005.1 mb 0.00 in0.0 mm 0.00 in0.0 mm 0.00 in0.0 mm
07:06 PM 69.9°F21.1°C 20.2°F-6.6°C 15% 5.0 mph NE8.0 kmh NE 7.0 mph11.3 kmh 29.68 in1005.1 mb 0.00 in0.0 mm 0.00 in0.0 mm 0.00 in0.0 mm
07:11 PM 69.4°F20.8°C 19.8°F-6.8°C 15% 6.0 mph NE9.7 kmh NE 7.0 mph11.3 kmh 29.68 in1005.1 mb 0.00 in0.0 mm 0.00 in0.0 mm 0.00 in0.0 mm
07:16 PM 69.3°F20.7°C 19.7°F-6.8°C 15% 3.0 mph NE4.8 kmh NE 7.0 mph11.3 kmh 29.66 in1004.4 mb 0.00 in0.0 mm 0.00 in0.0 mm 0.00 in0.0 mm
07:21 PM 69.1°F20.6°C 19.5°F-6.9°C 15% 4.0 mph NE6.4 kmh NE 7.0 mph11.3 kmh 29.66 in1004.4 mb 0.00 in0.0 mm 0.00 in0.0 mm 0.00 in0.0 mm
07:26 PM 68.9°F20.5°C 19.4°F-7.0°C 15% 5.0 mph NE8.0 kmh NE 7.0 mph11.3 kmh 29.66 in1004.4 mb 0.00 in0.0 mm 0.00 in0.0 mm 0.00 in0.0 mm
07:31 PM 68.8°F20.4°C 20.8°F-6.2°C 16% 3.0 mph NE4.8 kmh NE 7.0 mph11.3 kmh 29.66 in1004.4 mb 0.00 in0.0 mm 0.00 in0.0 mm 0.00 in0.0 mm
07:36 PM 68.4°F20.2°C 20.5°F-6.4°C 16% 1.0 mph NE1.6 kmh NE 7.0 mph11.3 kmh 29.66 in1004.4 mb 0.00 in0.0 mm 0.00 in0.0 mm 0.00 in0.0 mm
07:41 PM 67.9°F19.9°C 20.1°F-6.6°C 16% 1.0 mph NE1.6 kmh NE 7.0 mph11.3 kmh 29.66 in1004.4 mb 0.00 in0.0 mm 0.00 in0.0 mm 0.00 in0.0 mm
07:46 PM 67.4°F19.7°C 19.7°F-6.8°C 16% 1.0 mph NE1.6 kmh NE 2.0 mph3.2 kmh 29.67 in1004.7 mb 0.00 in0.0 mm 0.00 in0.0 mm 0.00 in0.0 mm
07:51 PM 66.6°F19.2°C 20.4°F-6.4°C 17% Calm Calm 1.0 mph1.6 kmh 29.67 in1004.7 mb 0.00 in0.0 mm 0.00 in0.0 mm 0.00 in0.0 mm
07:56 PM 65.8°F18.8°C 19.8°F-6.8°C 17% Calm Calm 1.0 mph1.6 kmh 29.67 in1004.7 mb 0.00 in0.0 mm 0.00 in0.0 mm 0.00 in0.0 mm
08:01 PM 65.2°F18.4°C 20.6°F-6.3°C 18% Calm Calm 1.0 mph1.6 kmh 29.68 in1005.1 mb 0.00 in0.0 mm 0.00 in0.0 mm 0.00 in0.0 mm
08:06 PM 64.5°F18.1°C 20.1°F-6.6°C 18% 2.0 mph NE3.2 kmh NE 3.0 mph4.8 kmh 29.68 in1005.1 mb 0.00 in0.0 mm 0.00 in0.0 mm 0.00 in0.0 mm
08:11 PM 64.3°F17.9°C 26.7°F-2.9°C 24% 3.0 mph NE4.8 kmh NE 3.0 mph4.8 kmh 29.68 in1005.1 mb 0.00 in0.0 mm 0.00 in0.0 mm 0.00 in0.0 mm
08:16 PM 64.3°F17.9°C 21.2°F-6.0°C 19% 1.0 mph NE1.6 kmh NE 4.0 mph6.4 kmh 29.67 in1004.7 mb 0.00 in0.0 mm 0.00 in0.0 mm 0.00 in0.0 mm
08:21 PM 64.2°F17.9°C 21.1°F-6.1°C 19% 2.0 mph NE3.2 kmh NE 4.0 mph6.4 kmh 29.67 in1004.7 mb 0.00 in0.0 mm 0.00 in0.0 mm 0.00 in0.0 mm
08:26 PM 64.2°F17.9°C 22.3°F-5.4°C 20% 1.0 mph NE1.6 kmh NE 4.0 mph6.4 kmh 29.67 in1004.7 mb 0.00 in0.0 mm 0.00 in0.0 mm 0.00 in0.0 mm
08:31 PM 63.7°F17.6°C 23.0°F-5.0°C 21% Calm Calm -- 29.68 in1005.1 mb 0.00 in0.0 mm 0.00 in0.0 mm 0.00 in0.0 mm
08:36 PM 63.1°F17.3°C 21.4°F-5.9°C 20% Calm Calm 2.0 mph3.2 kmh 29.68 in1005.1 mb 0.00 in0.0 mm 0.00 in0.0 mm 0.00 in0.0 mm
08:41 PM 62.6°F17.0°C 21.0°F-6.1°C 20% Calm Calm 1.0 mph1.6 kmh 29.68 in1005.1 mb 0.00 in0.0 mm 0.00 in0.0 mm 0.00 in0.0 mm
08:46 PM 62.1°F16.7°C 20.6°F-6.3°C 20% 1.0 mph NE1.6 kmh NE 1.0 mph1.6 kmh 29.68 in1005.1 mb 0.00 in0.0 mm 0.00 in0.0 mm 0.00 in0.0 mm
08:51 PM 61.6°F16.4°C 20.1°F-6.6°C 20% Calm Calm -- 29.68 in1005.1 mb 0.00 in0.0 mm 0.00 in0.0 mm 0.00 in0.0 mm
08:56 PM 61.2°F16.2°C 19.8°F-6.8°C 20% Calm Calm 1.0 mph1.6 kmh 29.68 in1005.1 mb 0.00 in0.0 mm 0.00 in0.0 mm 0.00 in0.0 mm
09:01 PM 60.9°F16.1°C 19.6°F-6.9°C 20% Calm Calm 1.0 mph1.6 kmh 29.69 in1005.4 mb 0.00 in0.0 mm 0.00 in0.0 mm 0.00 in0.0 mm
09:06 PM 60.5°F15.8°C 23.5°F-4.7°C 24% Calm Calm 2.0 mph3.2 kmh 29.69 in1005.4 mb 0.00 in0.0 mm 0.00 in0.0 mm 0.00 in0.0 mm
09:11 PM 60.4°F15.8°C 20.3°F-6.5°C 21% Calm Calm 2.0 mph3.2 kmh 29.69 in1005.4 mb 0.00 in0.0 mm 0.00 in0.0 mm 0.00 in0.0 mm
09:16 PM 59.9°F15.5°C 19.9°F-6.7°C 21% 1.0 mph NE1.6 kmh NE 2.0 mph3.2 kmh 29.69 in1005.4 mb 0.00 in0.0 mm 0.00 in0.0 mm 0.00 in0.0 mm
09:21 PM 59.6°F15.3°C 19.6°F-6.9°C 21% 1.0 mph NE1.6 kmh NE 2.0 mph3.2 kmh 29.69 in1005.4 mb 0.00 in0.0 mm 0.00 in0.0 mm 0.00 in0.0 mm
09:26 PM 59.3°F15.2°C 19.4°F-7.0°C 21% Calm Calm 2.0 mph3.2 kmh 29.69 in1005.4 mb 0.00 in0.0 mm 0.00 in0.0 mm 0.00 in0.0 mm
09:31 PM 59.0°F15.0°C 20.2°F-6.6°C 22% Calm Calm 2.0 mph3.2 kmh 29.69 in1005.4 mb 0.00 in0.0 mm 0.00 in0.0 mm 0.00 in0.0 mm
09:36 PM 58.6°F14.8°C 19.9°F-6.7°C 22% 1.0 mph NE1.6 kmh NE 2.0 mph3.2 kmh 29.69 in1005.4 mb 0.00 in0.0 mm 0.00 in0.0 mm 0.00 in0.0 mm
09:41 PM 58.4°F14.7°C 19.7°F-6.8°C 22% 2.0 mph NE3.2 kmh NE 2.0 mph3.2 kmh 29.69 in1005.4 mb 0.00 in0.0 mm 0.00 in0.0 mm 0.00 in0.0 mm
09:46 PM 58.1°F14.5°C 19.5°F-6.9°C 22% Calm Calm 2.0 mph3.2 kmh 29.70 in1005.8 mb 0.00 in0.0 mm 0.00 in0.0 mm 0.00 in0.0 mm
09:51 PM 58.6°F14.8°C 19.9°F-6.7°C 22% 2.0 mph NNE3.2 kmh NNE 5.0 mph8.0 kmh 29.70 in1005.8 mb 0.00 in0.0 mm 0.00 in0.0 mm 0.00 in0.0 mm
09:56 PM 59.5°F15.3°C 19.5°F-6.9°C 21% Calm Calm 5.0 mph8.0 kmh 29.70 in1005.8 mb 0.00 in0.0 mm 0.00 in0.0 mm 0.00 in0.0 mm
10:01 PM 59.5°F15.3°C 20.6°F-6.3°C 22% Calm Calm 5.0 mph8.0 kmh 29.69 in1005.4 mb 0.00 in0.0 mm 0.00 in0.0 mm 0.00 in0.0 mm
10:06 PM 59.0°F15.0°C 20.2°F-6.6°C 22% 2.0 mph NE3.2 kmh NE 5.0 mph8.0 kmh 29.69 in1005.4 mb 0.00 in0.0 mm 0.00 in0.0 mm 0.00 in0.0 mm
10:11 PM 58.7°F14.8°C 20.0°F-6.7°C 22% 1.0 mph ESE1.6 kmh ESE 1.0 mph1.6 kmh 29.69 in1005.4 mb 0.00 in0.0 mm 0.00 in0.0 mm 0.00 in0.0 mm
10:16 PM 58.6°F14.8°C 20.9°F-6.2°C 23% 1.0 mph ESE1.6 kmh ESE 2.0 mph3.2 kmh 29.69 in1005.4 mb 0.00 in0.0 mm 0.00 in0.0 mm 0.00 in0.0 mm
10:21 PM 58.4°F14.7°C 20.8°F-6.2°C 23% Calm Calm 3.0 mph4.8 kmh 29.69 in1005.4 mb 0.00 in0.0 mm 0.00 in0.0 mm 0.00 in0.0 mm
10:26 PM 58.3°F14.6°C 20.7°F-6.3°C 23% Calm Calm 3.0 mph4.8 kmh 29.69 in1005.4 mb 0.00 in0.0 mm 0.00 in0.0 mm 0.00 in0.0 mm
10:31 PM 58.3°F14.6°C 20.7°F-6.3°C 23% Calm Calm 3.0 mph4.8 kmh 29.70 in1005.8 mb 0.00 in0.0 mm 0.00 in0.0 mm 0.00 in0.0 mm
10:36 PM 58.3°F14.6°C 20.7°F-6.3°C 23% Calm Calm 1.0 mph1.6 kmh 29.70 in1005.8 mb 0.00 in0.0 mm 0.00 in0.0 mm 0.00 in0.0 mm
10:41 PM 58.3°F14.6°C 20.7°F-6.3°C 23% Calm Calm 2.0 mph3.2 kmh 29.70 in1005.8 mb 0.00 in0.0 mm 0.00 in0.0 mm 0.00 in0.0 mm
10:46 PM 58.3°F14.6°C 20.7°F-6.3°C 23% 1.0 mph ESE1.6 kmh ESE 2.0 mph3.2 kmh 29.70 in1005.8 mb 0.00 in0.0 mm 0.00 in0.0 mm 0.00 in0.0 mm
10:51 PM 58.6°F14.8°C 21.9°F-5.6°C 24% Calm Calm 2.0 mph3.2 kmh 29.70 in1005.8 mb 0.00 in0.0 mm 0.00 in0.0 mm 0.00 in0.0 mm
10:56 PM 58.7°F14.8°C 21.0°F-6.1°C 23% 1.0 mph ESE1.6 kmh ESE 2.0 mph3.2 kmh 29.70 in1005.8 mb 0.00 in0.0 mm 0.00 in0.0 mm 0.00 in0.0 mm
11:01 PM 58.9°F14.9°C 22.2°F-5.4°C 24% 1.0 mph ESE1.6 kmh ESE 2.0 mph3.2 kmh 29.69 in1005.4 mb 0.00 in0.0 mm 0.00 in0.0 mm 0.00 in0.0 mm
11:06 PM 58.7°F14.8°C 22.0°F-5.6°C 24% 2.0 mph ESE3.2 kmh ESE 2.0 mph3.2 kmh 29.69 in1005.4 mb 0.00 in0.0 mm 0.00 in0.0 mm 0.00 in0.0 mm
11:11 PM 58.6°F14.8°C 22.9°F-5.1°C 25% 1.0 mph ESE1.6 kmh ESE 2.0 mph3.2 kmh 29.69 in1005.4 mb 0.00 in0.0 mm 0.00 in0.0 mm 0.00 in0.0 mm
11:16 PM 58.6°F14.8°C 23.8°F-4.6°C 26% 1.0 mph ESE1.6 kmh ESE 2.0 mph3.2 kmh 29.68 in1005.1 mb 0.00 in0.0 mm 0.00 in0.0 mm 0.00 in0.0 mm
11:21 PM 58.3°F14.6°C 23.6°F-4.7°C 26% 2.0 mph ESE3.2 kmh ESE 3.0 mph4.8 kmh 29.68 in1005.1 mb 0.00 in0.0 mm 0.00 in0.0 mm 0.00 in0.0 mm
11:26 PM 58.6°F14.8°C 24.7°F-4.1°C 27% 2.0 mph ESE3.2 kmh ESE 3.0 mph4.8 kmh 29.68 in1005.1 mb 0.00 in0.0 mm 0.00 in0.0 mm 0.00 in0.0 mm
11:31 PM 58.7°F14.8°C 24.8°F-4.0°C 27% 2.0 mph NE3.2 kmh NE 3.0 mph4.8 kmh 29.69 in1005.4 mb 0.00 in0.0 mm 0.00 in0.0 mm 0.00 in0.0 mm
11:36 PM 59.0°F15.0°C 25.1°F-3.8°C 27% Calm Calm 3.0 mph4.8 kmh 29.69 in1005.4 mb 0.00 in0.0 mm 0.00 in0.0 mm 0.00 in0.0 mm
11:41 PM 58.9°F14.9°C 25.0°F-3.9°C 27% Calm Calm 1.0 mph1.6 kmh 29.69 in1005.4 mb 0.00 in0.0 mm 0.00 in0.0 mm 0.00 in0.0 mm
11:46 PM 58.4°F14.7°C 24.6°F-4.1°C 27% 1.0 mph NE1.6 kmh NE 2.0 mph3.2 kmh 29.69 in1005.4 mb 0.00 in0.0 mm 0.00 in0.0 mm 0.00 in0.0 mm
11:51 PM 57.8°F14.3°C 24.0°F-4.4°C 27% 3.0 mph NE4.8 kmh NE 3.0 mph4.8 kmh 29.69 in1005.4 mb 0.00 in0.0 mm 0.00 in0.0 mm 0.00 in0.0 mm
11:56 PM 57.5°F14.2°C 23.8°F-4.6°C 27% 2.0 mph NE3.2 kmh NE 3.0 mph4.8 kmh 29.69 in1005.4 mb 0.00 in0.0 mm 0.00 in0.0 mm 0.00 in0.0 mm